Terminal Aerodrome Forecast
Issued by NWS Cleveland, OH

Home | Current Version | Previous Version | Text Only | Print | Product List | Glossary On
Versions: 1 2 3 4 5 6 7 8 9 10 11 12 13 14
000
FTUS41 KCLE 081735
TAFTOL
TAF
KTOL 081735Z 0818/0918 26020G30KT 6SM -SHSN OVC025
      TEMPO 0820/0822 5SM -SHSN OVC018
     FM082200 26020G30KT 3SM -SHSN OVC018
      TEMPO 0902/0904 2SM -SHSN
     FM090400 27014G22KT 1 1/2SM -SHSN OVC008
     FM091200 27012KT 3SM -SHSN OVC012=

USA.gov is the U.S. government's official web portal to all federal, state and local government web resources and services.